sensor_id;sensor_type;location;lat;lon;timestamp;temperature;humidity
18309;DHT22;9280;50.276;18.650;2022-08-03T00:02:37;17.10;99.90
18309;DHT22;9280;50.276;18.650;2022-08-03T00:05:23;17.10;99.90
18309;DHT22;9280;50.276;18.650;2022-08-03T00:08:11;17.10;99.90
18309;DHT22;9280;50.276;18.650;2022-08-03T00:10:57;17.00;99.90
18309;DHT22;9280;50.276;18.650;2022-08-03T00:13:43;17.00;99.90
18309;DHT22;9280;50.276;18.650;2022-08-03T00:16:29;17.00;99.90
18309;DHT22;9280;50.276;18.650;2022-08-03T00:19:15;17.00;99.90
18309;DHT22;9280;50.276;18.650;2022-08-03T00:22:01;17.00;99.90
18309;DHT22;9280;50.276;18.650;2022-08-03T00:24:48;17.00;99.90
18309;DHT22;9280;50.276;18.650;2022-08-03T00:27:34;17.00;99.90
18309;DHT22;9280;50.276;18.650;2022-08-03T00:30:20;17.00;99.90
18309;DHT22;9280;50.276;18.650;2022-08-03T00:33:06;17.00;99.90
18309;DHT22;9280;50.276;18.650;2022-08-03T00:35:53;16.90;99.90
18309;DHT22;9280;50.276;18.650;2022-08-03T00:38:39;16.90;99.90
18309;DHT22;9280;50.276;18.650;2022-08-03T00:41:26;17.00;99.90
18309;DHT22;9280;50.276;18.650;2022-08-03T00:44:12;17.00;99.90
18309;DHT22;9280;50.276;18.650;2022-08-03T00:46:58;17.00;99.90
18309;DHT22;9280;50.276;18.650;2022-08-03T00:49:45;16.90;99.90
18309;DHT22;9280;50.276;18.650;2022-08-03T00:52:32;16.90;99.90
18309;DHT22;9280;50.276;18.650;2022-08-03T00:55:19;17.00;99.90
18309;DHT22;9280;50.276;18.650;2022-08-03T00:58:06;16.90;99.90
18309;DHT22;9280;50.276;18.650;2022-08-03T01:00:54;16.90;99.90
18309;DHT22;9280;50.276;18.650;2022-08-03T01:03:41;16.90;99.90
18309;DHT22;9280;50.276;18.650;2022-08-03T01:06:35;16.90;99.90
18309;DHT22;9280;50.276;18.650;2022-08-03T01:09:29;16.90;99.90
18309;DHT22;9280;50.276;18.650;2022-08-03T01:12:25;16.90;99.90
18309;DHT22;9280;50.276;18.650;2022-08-03T01:15:20;16.90;99.90
18309;DHT22;9280;50.276;18.650;2022-08-03T01:18:16;17.00;99.90
18309;DHT22;9280;50.276;18.650;2022-08-03T01:21:08;17.00;99.90
18309;DHT22;9280;50.276;18.650;2022-08-03T01:24:03;16.90;99.90
18309;DHT22;9280;50.276;18.650;2022-08-03T01:27:02;16.90;99.90
18309;DHT22;9280;50.276;18.650;2022-08-03T01:29:59;16.80;99.90
18309;DHT22;9280;50.276;18.650;2022-08-03T01:32:51;16.80;99.90
18309;DHT22;9280;50.276;18.650;2022-08-03T01:35:42;16.70;99.90
18309;DHT22;9280;50.276;18.650;2022-08-03T01:38:31;16.70;99.90
18309;DHT22;9280;50.276;18.650;2022-08-03T01:41:23;16.60;99.90
18309;DHT22;9280;50.276;18.650;2022-08-03T01:44:10;16.60;99.90
18309;DHT22;9280;50.276;18.650;2022-08-03T01:47:00;16.60;99.90
18309;DHT22;9280;50.276;18.650;2022-08-03T01:49:47;16.60;99.90
18309;DHT22;9280;50.276;18.650;2022-08-03T01:52:37;16.50;99.90
18309;DHT22;9280;50.276;18.650;2022-08-03T01:55:28;16.50;99.90
18309;DHT22;9280;50.276;18.650;2022-08-03T01:58:17;16.50;99.90
18309;DHT22;9280;50.276;18.650;2022-08-03T02:01:05;16.50;99.90
18309;DHT22;9280;50.276;18.650;2022-08-03T02:03:54;16.50;99.90
18309;DHT22;9280;50.276;18.650;2022-08-03T02:06:44;16.50;99.90
18309;DHT22;9280;50.276;18.650;2022-08-03T02:09:31;16.50;99.90
18309;DHT22;9280;50.276;18.650;2022-08-03T02:12:19;16.50;99.90
18309;DHT22;9280;50.276;18.650;2022-08-03T02:15:07;16.40;99.90
18309;DHT22;9280;50.276;18.650;2022-08-03T02:17:54;16.40;99.90
18309;DHT22;9280;50.276;18.650;2022-08-03T02:20:42;16.30;99.90
18309;DHT22;9280;50.276;18.650;2022-08-03T02:23:29;16.30;99.90
18309;DHT22;9280;50.276;18.650;2022-08-03T02:26:16;16.20;99.90
18309;DHT22;9280;50.276;18.650;2022-08-03T02:29:09;16.20;99.90
18309;DHT22;9280;50.276;18.650;2022-08-03T02:31:58;16.10;99.90
18309;DHT22;9280;50.276;18.650;2022-08-03T02:34:47;16.00;99.90
18309;DHT22;9280;50.276;18.650;2022-08-03T02:37:40;16.00;99.90
18309;DHT22;9280;50.276;18.650;2022-08-03T02:40:28;15.90;99.90
18309;DHT22;9280;50.276;18.650;2022-08-03T02:43:17;15.90;99.90
18309;DHT22;9280;50.276;18.650;2022-08-03T02:46:04;15.80;99.90
18309;DHT22;9280;50.276;18.650;2022-08-03T02:48:52;15.80;99.90
18309;DHT22;9280;50.276;18.650;2022-08-03T02:51:39;15.80;99.90
18309;DHT22;9280;50.276;18.650;2022-08-03T02:54:28;15.80;99.90
18309;DHT22;9280;50.276;18.650;2022-08-03T02:57:15;15.80;99.90
18309;DHT22;9280;50.276;18.650;2022-08-03T03:00:05;15.80;99.90
18309;DHT22;9280;50.276;18.650;2022-08-03T03:02:51;15.80;99.90
18309;DHT22;9280;50.276;18.650;2022-08-03T03:05:38;15.90;99.90
18309;DHT22;9280;50.276;18.650;2022-08-03T03:08:25;15.90;99.90
18309;DHT22;9280;50.276;18.650;2022-08-03T03:11:14;15.90;99.90
18309;DHT22;9280;50.276;18.650;2022-08-03T03:14:00;15.90;99.90
18309;DHT22;9280;50.276;18.650;2022-08-03T03:16:47;16.00;99.90
18309;DHT22;9280;50.276;18.650;2022-08-03T03:19:34;16.00;99.90
18309;DHT22;9280;50.276;18.650;2022-08-03T03:22:22;16.00;99.90
18309;DHT22;9280;50.276;18.650;2022-08-03T03:25:09;16.10;99.90
18309;DHT22;9280;50.276;18.650;2022-08-03T03:27:57;16.10;99.90
18309;DHT22;9280;50.276;18.650;2022-08-03T03:30:44;16.10;99.90
18309;DHT22;9280;50.276;18.650;2022-08-03T03:33:30;16.10;99.90
18309;DHT22;9280;50.276;18.650;2022-08-03T03:36:17;16.10;99.90
18309;DHT22;9280;50.276;18.650;2022-08-03T03:39:03;16.20;99.90
18309;DHT22;9280;50.276;18.650;2022-08-03T03:41:49;16.20;99.90
18309;DHT22;9280;50.276;18.650;2022-08-03T03:44:37;16.30;99.90
18309;DHT22;9280;50.276;18.650;2022-08-03T03:47:23;16.20;99.90
18309;DHT22;9280;50.276;18.650;2022-08-03T03:50:09;16.30;99.90
18309;DHT22;9280;50.276;18.650;2022-08-03T03:52:55;16.30;99.90
18309;DHT22;9280;50.276;18.650;2022-08-03T03:55:41;16.20;99.90
18309;DHT22;9280;50.276;18.650;2022-08-03T03:58:27;16.20;99.90
18309;DHT22;9280;50.276;18.650;2022-08-03T04:01:15;16.30;99.90
18309;DHT22;9280;50.276;18.650;2022-08-03T04:04:01;16.20;99.90
18309;DHT22;9280;50.276;18.650;2022-08-03T04:07:07;16.20;99.90
18309;DHT22;9280;50.276;18.650;2022-08-03T04:10:13;16.20;99.90
18309;DHT22;9280;50.276;18.650;2022-08-03T04:13:17;16.20;99.90
18309;DHT22;9280;50.276;18.650;2022-08-03T04:16:06;16.20;99.90
18309;DHT22;9280;50.276;18.650;2022-08-03T04:18:59;16.20;99.90
18309;DHT22;9280;50.276;18.650;2022-08-03T04:21:49;16.20;99.90
18309;DHT22;9280;50.276;18.650;2022-08-03T04:24:39;16.30;99.90
18309;DHT22;9280;50.276;18.650;2022-08-03T04:27:29;16.30;99.90
18309;DHT22;9280;50.276;18.650;2022-08-03T04:30:18;16.40;99.90
18309;DHT22;9280;50.276;18.650;2022-08-03T04:33:05;16.40;99.90
18309;DHT22;9280;50.276;18.650;2022-08-03T04:35:54;16.50;99.90
18309;DHT22;9280;50.276;18.650;2022-08-03T04:38:52;16.50;99.90
18309;DHT22;9280;50.276;18.650;2022-08-03T04:41:39;16.60;99.90
18309;DHT22;9280;50.276;18.650;2022-08-03T04:44:26;16.60;99.90
18309;DHT22;9280;50.276;18.650;2022-08-03T04:47:13;16.70;99.90
18309;DHT22;9280;50.276;18.650;2022-08-03T04:50:00;16.60;99.90
18309;DHT22;9280;50.276;18.650;2022-08-03T04:52:48;16.60;99.90
18309;DHT22;9280;50.276;18.650;2022-08-03T04:55:34;16.70;99.90
18309;DHT22;9280;50.276;18.650;2022-08-03T04:58:20;16.60;99.90
18309;DHT22;9280;50.276;18.650;2022-08-03T05:01:09;16.70;99.90
18309;DHT22;9280;50.276;18.650;2022-08-03T05:03:55;16.70;99.90
18309;DHT22;9280;50.276;18.650;2022-08-03T05:06:41;16.80;99.90
18309;DHT22;9280;50.276;18.650;2022-08-03T05:09:28;16.90;99.90
18309;DHT22;9280;50.276;18.650;2022-08-03T05:12:14;17.00;99.90
18309;DHT22;9280;50.276;18.650;2022-08-03T05:15:00;17.20;99.90
18309;DHT22;9280;50.276;18.650;2022-08-03T05:17:46;17.30;99.90
18309;DHT22;9280;50.276;18.650;2022-08-03T05:20:32;17.50;99.90
18309;DHT22;9280;50.276;18.650;2022-08-03T05:23:18;17.60;99.90
18309;DHT22;9280;50.276;18.650;2022-08-03T05:26:06;17.70;99.90
18309;DHT22;9280;50.276;18.650;2022-08-03T05:28:52;17.90;99.90
18309;DHT22;9280;50.276;18.650;2022-08-03T05:31:38;18.10;99.90
18309;DHT22;9280;50.276;18.650;2022-08-03T05:34:24;18.20;99.90
18309;DHT22;9280;50.276;18.650;2022-08-03T05:37:10;18.40;99.90
18309;DHT22;9280;50.276;18.650;2022-08-03T05:39:56;18.50;99.90
18309;DHT22;9280;50.276;18.650;2022-08-03T05:42:44;18.70;99.90
18309;DHT22;9280;50.276;18.650;2022-08-03T05:45:30;18.80;99.90
18309;DHT22;9280;50.276;18.650;2022-08-03T05:48:16;19.00;99.90
18309;DHT22;9280;50.276;18.650;2022-08-03T05:51:02;19.20;99.90
18309;DHT22;9280;50.276;18.650;2022-08-03T05:53:51;19.40;99.90
18309;DHT22;9280;50.276;18.650;2022-08-03T05:56:37;19.60;99.90
18309;DHT22;9280;50.276;18.650;2022-08-03T05:59:25;19.80;99.90
18309;DHT22;9280;50.276;18.650;2022-08-03T06:02:11;20.00;99.90
18309;DHT22;9280;50.276;18.650;2022-08-03T06:04:57;20.10;99.90
18309;DHT22;9280;50.276;18.650;2022-08-03T06:07:43;20.30;99.90
18309;DHT22;9280;50.276;18.650;2022-08-03T06:10:30;20.40;99.90
18309;DHT22;9280;50.276;18.650;2022-08-03T06:13:16;20.60;99.90
18309;DHT22;9280;50.276;18.650;2022-08-03T06:16:04;20.70;99.90
18309;DHT22;9280;50.276;18.650;2022-08-03T06:18:50;20.70;99.90
18309;DHT22;9280;50.276;18.650;2022-08-03T06:21:36;20.60;99.90
18309;DHT22;9280;50.276;18.650;2022-08-03T06:24:22;20.60;99.90
18309;DHT22;9280;50.276;18.650;2022-08-03T06:27:08;20.60;99.90
18309;DHT22;9280;50.276;18.650;2022-08-03T06:29:55;20.70;99.90
18309;DHT22;9280;50.276;18.650;2022-08-03T06:32:43;20.80;99.90
18309;DHT22;9280;50.276;18.650;2022-08-03T06:35:29;20.90;99.90
18309;DHT22;9280;50.276;18.650;2022-08-03T06:38:15;21.00;99.90
18309;DHT22;9280;50.276;18.650;2022-08-03T06:41:01;21.10;99.90
18309;DHT22;9280;50.276;18.650;2022-08-03T06:43:47;21.10;99.90
18309;DHT22;9280;50.276;18.650;2022-08-03T06:46:33;21.20;99.90
18309;DHT22;9280;50.276;18.650;2022-08-03T06:49:21;21.30;99.90
18309;DHT22;9280;50.276;18.650;2022-08-03T06:52:07;21.40;99.90
18309;DHT22;9280;50.276;18.650;2022-08-03T06:54:53;21.70;99.90
18309;DHT22;9280;50.276;18.650;2022-08-03T06:57:39;21.80;99.90
18309;DHT22;9280;50.276;18.650;2022-08-03T07:00:25;22.00;99.90
18309;DHT22;9280;50.276;18.650;2022-08-03T07:03:12;22.10;99.90
18309;DHT22;9280;50.276;18.650;2022-08-03T07:06:00;22.20;99.90
18309;DHT22;9280;50.276;18.650;2022-08-03T07:08:46;22.40;99.90
18309;DHT22;9280;50.276;18.650;2022-08-03T07:11:32;22.50;99.90
18309;DHT22;9280;50.276;18.650;2022-08-03T07:14:18;22.50;99.90
18309;DHT22;9280;50.276;18.650;2022-08-03T07:17:04;22.80;99.90
18309;DHT22;9280;50.276;18.650;2022-08-03T07:19:50;22.90;99.90
18309;DHT22;9280;50.276;18.650;2022-08-03T07:22:38;23.00;99.90
18309;DHT22;9280;50.276;18.650;2022-08-03T07:25:23;23.20;99.90
18309;DHT22;9280;50.276;18.650;2022-08-03T07:28:09;23.30;99.90
18309;DHT22;9280;50.276;18.650;2022-08-03T07:30:55;23.40;99.90
18309;DHT22;9280;50.276;18.650;2022-08-03T07:33:42;23.50;99.90
18309;DHT22;9280;50.276;18.650;2022-08-03T07:36:28;23.70;99.90
18309;DHT22;9280;50.276;18.650;2022-08-03T07:39:16;23.70;99.90
18309;DHT22;9280;50.276;18.650;2022-08-03T07:42:02;23.70;99.90
18309;DHT22;9280;50.276;18.650;2022-08-03T07:44:49;23.80;99.90
18309;DHT22;9280;50.276;18.650;2022-08-03T07:47:35;23.90;99.90
18309;DHT22;9280;50.276;18.650;2022-08-03T07:50:21;24.00;99.90
18309;DHT22;9280;50.276;18.650;2022-08-03T07:53:07;24.00;99.90
18309;DHT22;9280;50.276;18.650;2022-08-03T07:55:54;24.10;99.90
18309;DHT22;9280;50.276;18.650;2022-08-03T07:58:40;24.10;99.90
18309;DHT22;9280;50.276;18.650;2022-08-03T08:01:26;24.10;99.90
18309;DHT22;9280;50.276;18.650;2022-08-03T08:04:12;24.10;99.90
18309;DHT22;9280;50.276;18.650;2022-08-03T08:06:58;24.10;99.90
18309;DHT22;9280;50.276;18.650;2022-08-03T08:09:46;24.10;99.90
18309;DHT22;9280;50.276;18.650;2022-08-03T08:12:34;24.10;99.90
18309;DHT22;9280;50.276;18.650;2022-08-03T08:15:20;24.20;99.90
18309;DHT22;9280;50.276;18.650;2022-08-03T08:18:06;24.30;99.90
18309;DHT22;9280;50.276;18.650;2022-08-03T08:20:52;24.40;99.90
18309;DHT22;9280;50.276;18.650;2022-08-03T08:23:38;24.40;99.90
18309;DHT22;9280;50.276;18.650;2022-08-03T08:26:24;24.30;99.90
18309;DHT22;9280;50.276;18.650;2022-08-03T08:29:12;24.40;99.90
18309;DHT22;9280;50.276;18.650;2022-08-03T08:31:58;24.40;99.00
18309;DHT22;9280;50.276;18.650;2022-08-03T08:34:44;24.50;99.80
18309;DHT22;9280;50.276;18.650;2022-08-03T08:37:30;24.50;95.90
18309;DHT22;9280;50.276;18.650;2022-08-03T08:40:18;24.40;93.10
18309;DHT22;9280;50.276;18.650;2022-08-03T08:43:06;24.40;92.90
18309;DHT22;9280;50.276;18.650;2022-08-03T08:45:55;24.60;93.20
18309;DHT22;9280;50.276;18.650;2022-08-03T08:48:43;24.80;92.70
18309;DHT22;9280;50.276;18.650;2022-08-03T08:51:30;25.00;92.60
18309;DHT22;9280;50.276;18.650;2022-08-03T08:54:20;25.20;92.30
18309;DHT22;9280;50.276;18.650;2022-08-03T08:57:07;25.50;91.60
18309;DHT22;9280;50.276;18.650;2022-08-03T08:59:54;25.70;90.60
18309;DHT22;9280;50.276;18.650;2022-08-03T09:02:43;25.90;89.70
18309;DHT22;9280;50.276;18.650;2022-08-03T09:05:30;26.20;86.80
18309;DHT22;9280;50.276;18.650;2022-08-03T09:08:17;26.30;81.50
18309;DHT22;9280;50.276;18.650;2022-08-03T09:11:03;26.50;80.90
18309;DHT22;9280;50.276;18.650;2022-08-03T09:13:49;26.80;79.80
18309;DHT22;9280;50.276;18.650;2022-08-03T09:16:35;26.90;74.30
18309;DHT22;9280;50.276;18.650;2022-08-03T09:19:23;26.90;70.20
18309;DHT22;9280;50.276;18.650;2022-08-03T09:22:11;26.70;68.70
18309;DHT22;9280;50.276;18.650;2022-08-03T09:24:59;26.60;69.00
18309;DHT22;9280;50.276;18.650;2022-08-03T09:27:45;26.50;68.60
18309;DHT22;9280;50.276;18.650;2022-08-03T09:30:31;26.40;66.60
18309;DHT22;9280;50.276;18.650;2022-08-03T09:33:17;26.40;66.20
18309;DHT22;9280;50.276;18.650;2022-08-03T09:36:05;26.40;67.30
18309;DHT22;9280;50.276;18.650;2022-08-03T09:39:01;26.30;66.30
18309;DHT22;9280;50.276;18.650;2022-08-03T09:42:04;26.20;65.90
18309;DHT22;9280;50.276;18.650;2022-08-03T09:44:51;26.20;64.80
18309;DHT22;9280;50.276;18.650;2022-08-03T09:47:37;26.20;65.40
18309;DHT22;9280;50.276;18.650;2022-08-03T09:50:24;26.30;65.30
18309;DHT22;9280;50.276;18.650;2022-08-03T09:53:11;26.20;62.60
18309;DHT22;9280;50.276;18.650;2022-08-03T09:55:59;26.40;62.60
18309;DHT22;9280;50.276;18.650;2022-08-03T09:58:46;26.50;60.50
18309;DHT22;9280;50.276;18.650;2022-08-03T10:01:34;26.80;60.00
18309;DHT22;9280;50.276;18.650;2022-08-03T10:04:21;26.90;60.40
18309;DHT22;9280;50.276;18.650;2022-08-03T10:07:09;27.00;59.00
18309;DHT22;9280;50.276;18.650;2022-08-03T10:09:57;27.00;56.00
18309;DHT22;9280;50.276;18.650;2022-08-03T10:12:44;27.00;56.10
18309;DHT22;9280;50.276;18.650;2022-08-03T10:15:32;27.00;55.40
18309;DHT22;9280;50.276;18.650;2022-08-03T10:18:18;26.80;56.40
18309;DHT22;9280;50.276;18.650;2022-08-03T10:21:07;26.80;58.40
18309;DHT22;9280;50.276;18.650;2022-08-03T10:23:55;26.80;58.30
18309;DHT22;9280;50.276;18.650;2022-08-03T10:26:43;26.80;59.70
18309;DHT22;9280;50.276;18.650;2022-08-03T10:29:36;26.80;59.90
18309;DHT22;9280;50.276;18.650;2022-08-03T10:32:27;26.80;60.00
18309;DHT22;9280;50.276;18.650;2022-08-03T10:35:16;26.80;57.90
18309;DHT22;9280;50.276;18.650;2022-08-03T10:38:09;26.90;59.00
18309;DHT22;9280;50.276;18.650;2022-08-03T10:40:57;26.90;58.90
18309;DHT22;9280;50.276;18.650;2022-08-03T10:43:49;26.90;57.30
18309;DHT22;9280;50.276;18.650;2022-08-03T10:46:38;26.90;55.60
18309;DHT22;9280;50.276;18.650;2022-08-03T10:49:25;26.80;55.00
18309;DHT22;9280;50.276;18.650;2022-08-03T10:52:11;26.90;55.10
18309;DHT22;9280;50.276;18.650;2022-08-03T10:54:58;26.90;53.90
18309;DHT22;9280;50.276;18.650;2022-08-03T10:58:01;26.90;52.30
18309;DHT22;9280;50.276;18.650;2022-08-03T11:00:49;27.00;54.20
18309;DHT22;9280;50.276;18.650;2022-08-03T11:04:14;27.20;54.60
18309;DHT22;9280;50.276;18.650;2022-08-03T11:07:17;27.30;53.70
18309;DHT22;9280;50.276;18.650;2022-08-03T11:10:04;27.30;52.90
18309;DHT22;9280;50.276;18.650;2022-08-03T11:13:12;27.30;53.50
18309;DHT22;9280;50.276;18.650;2022-08-03T11:16:16;27.40;54.20
18309;DHT22;9280;50.276;18.650;2022-08-03T11:19:05;27.50;53.40
18309;DHT22;9280;50.276;18.650;2022-08-03T11:21:55;27.60;53.20
18309;DHT22;9280;50.276;18.650;2022-08-03T11:24:59;27.70;52.60
18309;DHT22;9280;50.276;18.650;2022-08-03T11:27:45;27.90;53.20
18309;DHT22;9280;50.276;18.650;2022-08-03T11:30:31;28.20;53.30
18309;DHT22;9280;50.276;18.650;2022-08-03T11:33:29;28.20;51.50
18309;DHT22;9280;50.276;18.650;2022-08-03T11:36:16;28.30;50.50
18309;DHT22;9280;50.276;18.650;2022-08-03T11:39:14;28.50;51.20
18309;DHT22;9280;50.276;18.650;2022-08-03T11:45:25;28.70;48.80
18309;DHT22;9280;50.276;18.650;2022-08-03T11:48:15;28.90;48.10
18309;DHT22;9280;50.276;18.650;2022-08-03T11:51:04;28.90;46.50
18309;DHT22;9280;50.276;18.650;2022-08-03T11:53:54;29.00;46.30
18309;DHT22;9280;50.276;18.650;2022-08-03T11:56:45;29.20;45.40
18309;DHT22;9280;50.276;18.650;2022-08-03T11:59:31;29.40;44.90
18309;DHT22;9280;50.276;18.650;2022-08-03T12:02:18;29.50;45.60
18309;DHT22;9280;50.276;18.650;2022-08-03T12:05:04;29.80;45.00
18309;DHT22;9280;50.276;18.650;2022-08-03T12:07:52;29.90;44.70
18309;DHT22;9280;50.276;18.650;2022-08-03T12:10:39;30.00;44.70
18309;DHT22;9280;50.276;18.650;2022-08-03T12:13:26;30.20;43.60
18309;DHT22;9280;50.276;18.650;2022-08-03T12:16:22;30.20;43.30
18309;DHT22;9280;50.276;18.650;2022-08-03T12:19:09;30.30;43.50
18309;DHT22;9280;50.276;18.650;2022-08-03T12:21:55;30.30;42.90
18309;DHT22;9280;50.276;18.650;2022-08-03T12:24:43;30.60;42.20
18309;DHT22;9280;50.276;18.650;2022-08-03T12:27:29;30.80;42.70
18309;DHT22;9280;50.276;18.650;2022-08-03T12:30:15;31.10;41.60
18309;DHT22;9280;50.276;18.650;2022-08-03T12:33:21;31.00;39.50
18309;DHT22;9280;50.276;18.650;2022-08-03T12:36:08;31.10;38.90
18309;DHT22;9280;50.276;18.650;2022-08-03T12:38:56;31.10;38.50
18309;DHT22;9280;50.276;18.650;2022-08-03T12:41:44;31.10;38.40
18309;DHT22;9280;50.276;18.650;2022-08-03T12:44:31;31.40;39.80
18309;DHT22;9280;50.276;18.650;2022-08-03T12:47:17;31.30;39.60
18309;DHT22;9280;50.276;18.650;2022-08-03T12:50:03;31.30;39.40
18309;DHT22;9280;50.276;18.650;2022-08-03T12:52:49;31.70;40.30
18309;DHT22;9280;50.276;18.650;2022-08-03T12:55:36;31.70;38.50
18309;DHT22;9280;50.276;18.650;2022-08-03T12:58:31;31.80;35.70
18309;DHT22;9280;50.276;18.650;2022-08-03T13:01:18;31.70;35.70
18309;DHT22;9280;50.276;18.650;2022-08-03T13:04:05;31.90;35.00
18309;DHT22;9280;50.276;18.650;2022-08-03T13:06:58;32.70;34.50
18309;DHT22;9280;50.276;18.650;2022-08-03T13:09:46;34.50;36.70
18309;DHT22;9280;50.276;18.650;2022-08-03T13:12:32;40.30;28.50
18309;DHT22;9280;50.276;18.650;2022-08-03T13:15:21;45.40;21.90
18309;DHT22;9280;50.276;18.650;2022-08-03T13:18:07;48.00;17.40
18309;DHT22;9280;50.276;18.650;2022-08-03T13:20:53;50.50;14.80
18309;DHT22;9280;50.276;18.650;2022-08-03T13:23:39;52.10;13.20
18309;DHT22;9280;50.276;18.650;2022-08-03T13:26:25;54.20;12.00
18309;DHT22;9280;50.276;18.650;2022-08-03T13:29:11;55.60;10.80
18309;DHT22;9280;50.276;18.650;2022-08-03T13:31:58;56.90;9.70
18309;DHT22;9280;50.276;18.650;2022-08-03T13:34:45;58.30;9.60
18309;DHT22;9280;50.276;18.650;2022-08-03T13:37:31;59.10;9.00
18309;DHT22;9280;50.276;18.650;2022-08-03T13:40:17;59.50;8.50
18309;DHT22;9280;50.276;18.650;2022-08-03T13:43:03;60.50;8.10
18309;DHT22;9280;50.276;18.650;2022-08-03T13:45:50;60.50;7.40
18309;DHT22;9280;50.276;18.650;2022-08-03T13:48:37;59.30;7.90
18309;DHT22;9280;50.276;18.650;2022-08-03T13:51:23;59.70;8.00
18309;DHT22;9280;50.276;18.650;2022-08-03T13:54:09;59.80;8.00
18309;DHT22;9280;50.276;18.650;2022-08-03T13:56:56;60.80;7.40
18309;DHT22;9280;50.276;18.650;2022-08-03T13:59:42;60.80;7.00
18309;DHT22;9280;50.276;18.650;2022-08-03T14:02:28;61.30;7.40
18309;DHT22;9280;50.276;18.650;2022-08-03T14:05:16;61.80;7.10
18309;DHT22;9280;50.276;18.650;2022-08-03T14:08:02;62.30;7.00
18309;DHT22;9280;50.276;18.650;2022-08-03T14:10:50;62.10;6.70
18309;DHT22;9280;50.276;18.650;2022-08-03T14:13:36;61.40;6.90
18309;DHT22;9280;50.276;18.650;2022-08-03T14:16:23;61.00;7.00
18309;DHT22;9280;50.276;18.650;2022-08-03T14:19:09;60.90;6.60
18309;DHT22;9280;50.276;18.650;2022-08-03T14:21:56;59.10;7.00
18309;DHT22;9280;50.276;18.650;2022-08-03T14:24:43;58.40;6.80
18309;DHT22;9280;50.276;18.650;2022-08-03T14:27:29;58.70;6.80
18309;DHT22;9280;50.276;18.650;2022-08-03T14:30:15;59.10;6.60
18309;DHT22;9280;50.276;18.650;2022-08-03T14:33:01;57.50;7.50
18309;DHT22;9280;50.276;18.650;2022-08-03T14:35:47;55.60;8.10
18309;DHT22;9280;50.276;18.650;2022-08-03T14:38:34;57.20;7.90
18309;DHT22;9280;50.276;18.650;2022-08-03T14:41:20;58.00;7.00
18309;DHT22;9280;50.276;18.650;2022-08-03T14:44:06;58.00;6.80
18309;DHT22;9280;50.276;18.650;2022-08-03T14:46:52;58.70;7.20
18309;DHT22;9280;50.276;18.650;2022-08-03T14:49:38;58.70;6.40
18309;DHT22;9280;50.276;18.650;2022-08-03T14:52:24;57.10;7.20
18309;DHT22;9280;50.276;18.650;2022-08-03T14:55:12;56.60;7.10
18309;DHT22;9280;50.276;18.650;2022-08-03T14:58:01;57.10;7.20
18309;DHT22;9280;50.276;18.650;2022-08-03T15:00:50;57.10;6.80
18309;DHT22;9280;50.276;18.650;2022-08-03T15:03:36;57.60;7.40
18309;DHT22;9280;50.276;18.650;2022-08-03T15:06:22;57.80;7.00
18309;DHT22;9280;50.276;18.650;2022-08-03T15:09:09;58.60;7.20
18309;DHT22;9280;50.276;18.650;2022-08-03T15:11:57;58.70;7.30
18309;DHT22;9280;50.276;18.650;2022-08-03T15:14:43;58.60;7.50
18309;DHT22;9280;50.276;18.650;2022-08-03T15:17:29;58.00;7.00
18309;DHT22;9280;50.276;18.650;2022-08-03T15:20:15;57.70;7.60
18309;DHT22;9280;50.276;18.650;2022-08-03T15:23:01;55.80;7.80
18309;DHT22;9280;50.276;18.650;2022-08-03T15:25:47;55.10;8.10
18309;DHT22;9280;50.276;18.650;2022-08-03T15:28:35;54.40;8.80
18309;DHT22;9280;50.276;18.650;2022-08-03T15:31:21;55.60;8.80
18309;DHT22;9280;50.276;18.650;2022-08-03T15:34:07;56.00;8.30
18309;DHT22;9280;50.276;18.650;2022-08-03T15:36:55;56.00;8.20
18309;DHT22;9280;50.276;18.650;2022-08-03T15:39:42;53.50;9.60
18309;DHT22;9280;50.276;18.650;2022-08-03T15:42:28;53.40;9.50
18309;DHT22;9280;50.276;18.650;2022-08-03T15:45:16;52.70;9.60
18309;DHT22;9280;50.276;18.650;2022-08-03T15:48:03;51.90;9.60
18309;DHT22;9280;50.276;18.650;2022-08-03T15:50:49;51.80;10.20
18309;DHT22;9280;50.276;18.650;2022-08-03T15:53:36;50.30;11.40
18309;DHT22;9280;50.276;18.650;2022-08-03T15:56:23;49.70;11.50
18309;DHT22;9280;50.276;18.650;2022-08-03T15:59:09;48.40;12.40
18309;DHT22;9280;50.276;18.650;2022-08-03T16:01:57;48.80;12.10
18309;DHT22;9280;50.276;18.650;2022-08-03T16:04:43;49.20;12.00
18309;DHT22;9280;50.276;18.650;2022-08-03T16:07:29;48.90;12.60
18309;DHT22;9280;50.276;18.650;2022-08-03T16:10:27;48.50;12.60
18309;DHT22;9280;50.276;18.650;2022-08-03T16:13:14;48.00;13.00
18309;DHT22;9280;50.276;18.650;2022-08-03T16:16:00;47.90;12.70
18309;DHT22;9280;50.276;18.650;2022-08-03T16:18:48;47.60;13.40
18309;DHT22;9280;50.276;18.650;2022-08-03T16:21:35;48.30;13.00
18309;DHT22;9280;50.276;18.650;2022-08-03T16:24:21;48.20;13.00
18309;DHT22;9280;50.276;18.650;2022-08-03T16:27:07;47.30;13.70
18309;DHT22;9280;50.276;18.650;2022-08-03T16:29:54;47.30;13.40
18309;DHT22;9280;50.276;18.650;2022-08-03T16:32:39;46.20;14.80
18309;DHT22;9280;50.276;18.650;2022-08-03T16:35:27;45.00;14.80
18309;DHT22;9280;50.276;18.650;2022-08-03T16:38:13;44.40;15.30
18309;DHT22;9280;50.276;18.650;2022-08-03T16:40:59;44.10;15.70
18309;DHT22;9280;50.276;18.650;2022-08-03T16:43:45;44.00;15.80
18309;DHT22;9280;50.276;18.650;2022-08-03T16:46:31;43.60;15.90
18309;DHT22;9280;50.276;18.650;2022-08-03T16:49:17;44.00;15.70
18309;DHT22;9280;50.276;18.650;2022-08-03T16:52:05;44.00;15.60
18309;DHT22;9280;50.276;18.650;2022-08-03T16:54:51;43.60;16.40
18309;DHT22;9280;50.276;18.650;2022-08-03T16:57:37;43.70;15.90
18309;DHT22;9280;50.276;18.650;2022-08-03T17:00:24;43.80;15.70
18309;DHT22;9280;50.276;18.650;2022-08-03T17:03:09;43.90;15.90
18309;DHT22;9280;50.276;18.650;2022-08-03T17:05:56;43.90;15.50
18309;DHT22;9280;50.276;18.650;2022-08-03T17:08:44;43.80;16.00
18309;DHT22;9280;50.276;18.650;2022-08-03T17:11:30;43.40;16.30
18309;DHT22;9280;50.276;18.650;2022-08-03T17:14:17;42.80;16.70
18309;DHT22;9280;50.276;18.650;2022-08-03T17:17:10;42.30;17.40
18309;DHT22;9280;50.276;18.650;2022-08-03T17:19:59;42.00;17.60
18309;DHT22;9280;50.276;18.650;2022-08-03T17:22:51;41.80;17.30
18309;DHT22;9280;50.276;18.650;2022-08-03T17:25:41;41.50;17.20
18309;DHT22;9280;50.276;18.650;2022-08-03T17:28:33;41.20;17.60
18309;DHT22;9280;50.276;18.650;2022-08-03T17:31:22;40.60;18.10
18309;DHT22;9280;50.276;18.650;2022-08-03T17:34:09;40.20;18.80
18309;DHT22;9280;50.276;18.650;2022-08-03T17:36:55;39.80;19.10
18309;DHT22;9280;50.276;18.650;2022-08-03T17:39:42;39.10;20.00
18309;DHT22;9280;50.276;18.650;2022-08-03T17:42:31;38.40;20.90
18309;DHT22;9280;50.276;18.650;2022-08-03T17:45:19;37.80;21.70
18309;DHT22;9280;50.276;18.650;2022-08-03T17:48:05;37.20;22.30